Terminal Aerodrome Forecast
Issued by NWS Caribou, ME

Home | Current Version | Previous Version | Text Only | Print | Product List | Glossary On
Versions: 1 2 3 4 5 6 7 8 9 10 11 12 13 14 15
000
FTUS41 KCAR 010530
TAFBGR
TAF
KBGR 010530Z 0106/0206 VRB03KT P6SM BKN070
     FM010900 VRB03KT P6SM OVC050
     FM011300 33006KT P6SM BKN050
     FM012300 35005KT P6SM SCT070=

USA.gov is the U.S. government's official web portal to all federal, state and local government web resources and services.